Cocopelli — PB7752 — position and weather

sailwx.info

Track history (hours):
 
Tides and Currents Weather Stations Pressure Air Temp Water Temp Dewpoint Dewpoint Depression Visibility Wind Speed Wind Dir Waves Ship Positions

Cocopelli

Last reported at 2016-Aug-22 13:31 UTC. Time now 2016-Sep-30 03:16 UTC.
Position N 52°46' E 005°06'.
Warning: this ship's position is 38 days out of date.

Length 15 m.

Type: Sailing vessel. MMSI: 244730543.

Date/timePositionNaut miles runAvg speedWind from/ knotsBaromVisibWave heightAir tempDewpointWater temp
2016-Aug-22 13:31N 52°46' E 005°06'2 1.8
2016-Aug-22 12:33N 52°46' E 005°09'5 5.4
2016-Aug-22 11:33N 52°44' E 005°17'2 0.1
2016-Aug-21 19:31N 52°42' E 005°18'0 0.0
2016-Aug-21 14:32N 52°42' E 005°18'1 1.3
2016-Aug-21 13:33N 52°41' E 005°17'6 5.5
2016-Aug-21 12:33N 52°36' E 005°14'5 5.2
2016-Aug-21 11:33N 52°31' E 005°11'6 6.3
2016-Aug-21 10:33N 52°25' E 005°07'5 0.3
2016-Aug-20 18:33N 52°20' E 005°08'5 5.3
2016-Aug-20 17:33N 52°22' E 004°60'4 3.5
2016-Aug-20 16:33N 52°23' E 004°54'4 4.4
2016-Aug-20 15:33N 52°25' E 004°48'5 4.8
2016-Aug-20 14:33N 52°27' E 004°41'3 3.2
2016-Aug-20 13:31N 52°28' E 004°35'2 2.4
2016-Aug-20 12:33N 52°28' E 004°31'6 5.7
2016-Aug-20 11:33N 52°23' E 004°27'5 5.3
2016-Aug-20 10:33N 52°18' E 004°24'5 4.6
2016-Aug-20 09:33N 52°14' E 004°22'5 4.7
2016-Aug-20 08:33N 52°10' E 004°16'5 4.5
2016-Aug-20 07:33N 52°06' E 004°16'0 0.0
2016-Aug-19 15:32N 52°06' E 004°16'4 3.8
2016-Aug-19 14:33N 52°04' E 004°10'7 7.4
2016-Aug-19 13:33N 52°00' E 004°00'8 7.3
2016-Aug-19 12:29N 51°55' E 003°51'17 5.2
2016-Aug-19 09:11N 51°43' E 003°30'3 4.3
2016-Aug-19 08:32N 51°41' E 003°28'5 4.9
2016-Aug-19 07:32N 51°36' E 003°27'6 5.4
2016-Aug-19 06:30N 51°30' E 003°28'6 6.7
2016-Aug-19 05:33N 51°25' E 003°33'1 0.1
2016-Aug-18 19:23N 51°24' E 003°34'0 0.0
2016-Aug-18 15:32N 51°24' E 003°34'1 1.1
2016-Aug-18 14:33N 51°24' E 003°33'7 6.6
2016-Aug-18 13:33N 51°24' E 003°22'8 7.6
2016-Aug-18 12:33N 51°22' E 003°11'7 6.9
2016-Aug-18 11:33N 51°18' E 003°02'6 6.0
2016-Aug-18 10:33N 51°14' E 002°54'5 4.4
2016-Aug-18 09:30N 51°12' E 002°47'3 3.7
2016-Aug-18 08:33N 51°10' E 002°43'2 1.6
2016-Aug-18 07:31N 51°09' E 002°44'0 0.0
2016-Aug-18 06:31N 51°09' E 002°44'0 0.0
2016-Aug-18 05:28N 51°09' E 002°44'0 0.0
2016-Aug-18 04:28N 51°09' E 002°44'0 0.0
2016-Aug-18 03:31N 51°09' E 002°44'0 0.0
2016-Aug-18 02:16N 51°09' E 002°44'0 0.0
2016-Aug-18 01:31N 51°09' E 002°44'0 0.0
2016-Aug-18 00:31N 51°09' E 002°44'0 0.0
2016-Aug-17 23:31N 51°09' E 002°44'0 0.0
2016-Aug-17 22:31N 51°09' E 002°44'0 0.0
2016-Aug-17 21:31N 51°09' E 002°44'0 0.0
2016-Aug-17 20:31N 51°09' E 002°44'0 0.0
2016-Aug-17 19:31N 51°09' E 002°44'0 0.0
2016-Aug-17 16:24N 51°09' E 002°44'1 0.6
2016-Aug-17 15:29N 51°09' E 002°44'5 4.7
2016-Aug-17 14:30N 51°09' E 002°36'7 6.0
2016-Aug-17 13:24N 51°05' E 002°28'7 6.9
2016-Aug-17 12:27N 51°04' E 002°17'7 7.4
2016-Aug-17 11:31N 51°03' E 002°07'7 7.7
2016-Aug-17 10:33N 51°01' E 001°55'9 7.8
2016-Aug-17 09:22N 50°58' E 001°41'  
Track history (hours):
 
Tides and Currents Weather Stations Pressure Air Temp Water Temp Dewpoint Dewpoint Depression Visibility Wind Speed Wind Dir Waves Ship Positions

Cocopelli

Last reported at 2016-Aug-22 13:31 UTC. Time now 2016-Sep-30 03:16 UTC.
Position N 52°46' E 005°06'.
Warning: this ship's position is 38 days out of date.

Length 15 m.

Type: Sailing vessel. MMSI: 244730543.

Date/timePositionNaut miles runAvg speedWind from/ knotsBaromVisibWave heightAir tempDewpointWater temp
2016-Aug-22 13:31N 52°46' E 005°06'2 1.8
2016-Aug-22 12:33N 52°46' E 005°09'5 5.4
2016-Aug-22 11:33N 52°44' E 005°17'2 0.1
2016-Aug-21 19:31N 52°42' E 005°18'0 0.0
2016-Aug-21 14:32N 52°42' E 005°18'1 1.3
2016-Aug-21 13:33N 52°41' E 005°17'6 5.5
2016-Aug-21 12:33N 52°36' E 005°14'5 5.2
2016-Aug-21 11:33N 52°31' E 005°11'6 6.3
2016-Aug-21 10:33N 52°25' E 005°07'5 0.3
2016-Aug-20 18:33N 52°20' E 005°08'5 5.3
2016-Aug-20 17:33N 52°22' E 004°60'4 3.5
2016-Aug-20 16:33N 52°23' E 004°54'4 4.4
2016-Aug-20 15:33N 52°25' E 004°48'5 4.8
2016-Aug-20 14:33N 52°27' E 004°41'3 3.2
2016-Aug-20 13:31N 52°28' E 004°35'2 2.4
2016-Aug-20 12:33N 52°28' E 004°31'6 5.7
2016-Aug-20 11:33N 52°23' E 004°27'5 5.3
2016-Aug-20 10:33N 52°18' E 004°24'5 4.6
2016-Aug-20 09:33N 52°14' E 004°22'5 4.7
2016-Aug-20 08:33N 52°10' E 004°16'5 4.5
2016-Aug-20 07:33N 52°06' E 004°16'0 0.0
2016-Aug-19 15:32N 52°06' E 004°16'4 3.8
2016-Aug-19 14:33N 52°04' E 004°10'7 7.4
2016-Aug-19 13:33N 52°00' E 004°00'8 7.3
2016-Aug-19 12:29N 51°55' E 003°51'17 5.2
2016-Aug-19 09:11N 51°43' E 003°30'3 4.3
2016-Aug-19 08:32N 51°41' E 003°28'5 4.9
2016-Aug-19 07:32N 51°36' E 003°27'6 5.4
2016-Aug-19 06:30N 51°30' E 003°28'6 6.7
2016-Aug-19 05:33N 51°25' E 003°33'1 0.1
2016-Aug-18 19:23N 51°24' E 003°34'0 0.0
2016-Aug-18 15:32N 51°24' E 003°34'1 1.1
2016-Aug-18 14:33N 51°24' E 003°33'7 6.6
2016-Aug-18 13:33N 51°24' E 003°22'8 7.6
2016-Aug-18 12:33N 51°22' E 003°11'7 6.9
2016-Aug-18 11:33N 51°18' E 003°02'6 6.0
2016-Aug-18 10:33N 51°14' E 002°54'5 4.4
2016-Aug-18 09:30N 51°12' E 002°47'3 3.7
2016-Aug-18 08:33N 51°10' E 002°43'2 1.6
2016-Aug-18 07:31N 51°09' E 002°44'0 0.0
2016-Aug-18 06:31N 51°09' E 002°44'0 0.0
2016-Aug-18 05:28N 51°09' E 002°44'0 0.0
2016-Aug-18 04:28N 51°09' E 002°44'0 0.0
2016-Aug-18 03:31N 51°09' E 002°44'0 0.0
2016-Aug-18 02:16N 51°09' E 002°44'0 0.0
2016-Aug-18 01:31N 51°09' E 002°44'0 0.0
2016-Aug-18 00:31N 51°09' E 002°44'0 0.0
2016-Aug-17 23:31N 51°09' E 002°44'0 0.0
2016-Aug-17 22:31N 51°09' E 002°44'0 0.0
2016-Aug-17 21:31N 51°09' E 002°44'0 0.0
2016-Aug-17 20:31N 51°09' E 002°44'0 0.0
2016-Aug-17 19:31N 51°09' E 002°44'0 0.0
2016-Aug-17 16:24N 51°09' E 002°44'1 0.6
2016-Aug-17 15:29N 51°09' E 002°44'5 4.7
2016-Aug-17 14:30N 51°09' E 002°36'7 6.0
2016-Aug-17 13:24N 51°05' E 002°28'7 6.9
2016-Aug-17 12:27N 51°04' E 002°17'7 7.4
2016-Aug-17 11:31N 51°03' E 002°07'7 7.7
2016-Aug-17 10:33N 51°01' E 001°55'9 7.8
2016-Aug-17 09:22N 50°58' E 001°41'  

Dump ship's entire track history